Ek-star — LAMT5 — position and weather

sailwx.info

Track history (hours):
 
Tides and Currents Weather Stations Pressure Air Temp Water Temp Dewpoint Dewpoint Depression Visibility Wind Speed Wind Dir Waves Ship Positions

Ek-star

Last reported at 2015-Mar-29 04:33 UTC. Time now 2015-Mar-29 06:08 UTC.
Position N 59°43' E 024°22'.

Length 135 m; draft 6 m.

Type: Tanker. MMSI: 257433000.

Date/timePositionNaut miles runAvg speedWind from/ knotsBaromVisibWave heightAir tempDewpointWater temp
2015-Mar-29 04:33N 59°43' E 024°22'1613.4
2015-Mar-29 03:21N 59°38' E 023°51'1213.7
2015-Mar-29 02:30N 59°35' E 023°29'63 1.4
2015-Mar-27 05:33N 59°32' E 021°25'5412.8
2015-Mar-27 01:17N 59°37' E 023°12'1213.6
2015-Mar-27 00:23N 59°41' E 023°35'2413.3
2015-Mar-26 22:33N 59°47' E 024°21'5413.2
2015-Mar-26 18:26N 59°58' E 026°08'1213.2
2015-Mar-26 17:33N 60°01' E 026°30'11012.1
2015-Mar-26 08:31N 59°54' E 030°08'1 0.0
2015-Mar-24 14:33N 59°53' E 030°11'  
2015-Mar-22 02:14N 60°03' E 027°20'1013.0
2015-Mar-22 01:27N 59°58' E 027°02'1213.3
2015-Mar-22 00:33N 59°59' E 026°39'7013.1
2015-Mar-21 19:14N 59°43' E 024°24'36312.5
2015-Mar-20 14:08N 55°46' E 015°50'1113.8
2015-Mar-20 13:19N 55°40' E 015°33'1213.5
2015-Mar-20 12:26N 55°34' E 015°14'1213.7
2015-Mar-20 11:33N 55°28' E 014°56'1313.4
2015-Mar-20 10:33N 55°21' E 014°36'1313.4
2015-Mar-20 09:33N 55°10' E 014°21'1313.3
2015-Mar-20 08:34N 55°01' E 014°04'1413.5
2015-Mar-20 07:33N 54°56' E 013°42'4513.4
2015-Mar-20 04:13N 54°39' E 012°31'913.3
2015-Mar-20 03:33N 54°34' E 012°18'1211.7
2015-Mar-20 02:33N 54°25' E 012°07'1313.3
2015-Mar-20 01:33N 54°26' E 011°44'1313.1
2015-Mar-20 00:33N 54°31' E 011°24'1212.2
2015-Mar-19 23:33N 54°37' E 011°05'  
Track history (hours):
 
Tides and Currents Weather Stations Pressure Air Temp Water Temp Dewpoint Dewpoint Depression Visibility Wind Speed Wind Dir Waves Ship Positions

Ek-star

Last reported at 2015-Mar-29 04:33 UTC. Time now 2015-Mar-29 06:08 UTC.
Position N 59°43' E 024°22'.

Length 135 m; draft 6 m.

Type: Tanker. MMSI: 257433000.

Date/timePositionNaut miles runAvg speedWind from/ knotsBaromVisibWave heightAir tempDewpointWater temp
2015-Mar-29 04:33N 59°43' E 024°22'1613.4
2015-Mar-29 03:21N 59°38' E 023°51'1213.7
2015-Mar-29 02:30N 59°35' E 023°29'63 1.4
2015-Mar-27 05:33N 59°32' E 021°25'5412.8
2015-Mar-27 01:17N 59°37' E 023°12'1213.6
2015-Mar-27 00:23N 59°41' E 023°35'2413.3
2015-Mar-26 22:33N 59°47' E 024°21'5413.2
2015-Mar-26 18:26N 59°58' E 026°08'1213.2
2015-Mar-26 17:33N 60°01' E 026°30'11012.1
2015-Mar-26 08:31N 59°54' E 030°08'1 0.0
2015-Mar-24 14:33N 59°53' E 030°11'  
2015-Mar-22 02:14N 60°03' E 027°20'1013.0
2015-Mar-22 01:27N 59°58' E 027°02'1213.3
2015-Mar-22 00:33N 59°59' E 026°39'7013.1
2015-Mar-21 19:14N 59°43' E 024°24'36312.5
2015-Mar-20 14:08N 55°46' E 015°50'1113.8
2015-Mar-20 13:19N 55°40' E 015°33'1213.5
2015-Mar-20 12:26N 55°34' E 015°14'1213.7
2015-Mar-20 11:33N 55°28' E 014°56'1313.4
2015-Mar-20 10:33N 55°21' E 014°36'1313.4
2015-Mar-20 09:33N 55°10' E 014°21'1313.3
2015-Mar-20 08:34N 55°01' E 014°04'1413.5
2015-Mar-20 07:33N 54°56' E 013°42'4513.4
2015-Mar-20 04:13N 54°39' E 012°31'913.3
2015-Mar-20 03:33N 54°34' E 012°18'1211.7
2015-Mar-20 02:33N 54°25' E 012°07'1313.3
2015-Mar-20 01:33N 54°26' E 011°44'1313.1
2015-Mar-20 00:33N 54°31' E 011°24'1212.2
2015-Mar-19 23:33N 54°37' E 011°05'  

Dump ship's entire track history